sensor_id;sensor_type;location;lat;lon;timestamp;pressure;altitude;pressure_sealevel;temperature;humidity
76022;BME280;64718;52.124;6.226;2023-05-13T00:01:08;102057.19;;;12.96;81.47
76022;BME280;64718;52.124;6.226;2023-05-13T00:03:35;102060.00;;;12.90;81.80
76022;BME280;64718;52.124;6.226;2023-05-13T00:06:02;102059.31;;;12.85;81.67
76022;BME280;64718;52.124;6.226;2023-05-13T00:08:28;102064.72;;;12.79;81.95
76022;BME280;64718;52.124;6.226;2023-05-13T00:10:55;102058.81;;;12.74;81.81
76022;BME280;64718;52.124;6.226;2023-05-13T00:13:21;102071.81;;;12.76;81.10
76022;BME280;64718;52.124;6.226;2023-05-13T00:15:49;102065.84;;;12.72;82.15
76022;BME280;64718;52.124;6.226;2023-05-13T00:18:16;102066.91;;;12.65;82.78
76022;BME280;64718;52.124;6.226;2023-05-13T00:20:42;102061.88;;;12.59;83.05
76022;BME280;64718;52.124;6.226;2023-05-13T00:23:09;102071.56;;;12.55;82.59
76022;BME280;64718;52.124;6.226;2023-05-13T00:25:36;102065.56;;;12.52;83.07
76022;BME280;64718;52.124;6.226;2023-05-13T00:28:03;102063.09;;;12.47;83.20
76022;BME280;64718;52.124;6.226;2023-05-13T00:30:30;102059.59;;;12.48;83.15
76022;BME280;64718;52.124;6.226;2023-05-13T00:32:57;102065.81;;;12.44;83.58
76022;BME280;64718;52.124;6.226;2023-05-13T00:35:24;102065.19;;;12.36;84.19
76022;BME280;64718;52.124;6.226;2023-05-13T00:37:51;102054.94;;;12.30;84.77
76022;BME280;64718;52.124;6.226;2023-05-13T00:40:19;102059.53;;;12.22;85.90
76022;BME280;64718;52.124;6.226;2023-05-13T00:42:46;102058.81;;;12.17;85.83
76022;BME280;64718;52.124;6.226;2023-05-13T00:45:13;102061.66;;;12.08;86.51
76022;BME280;64718;52.124;6.226;2023-05-13T00:47:39;102063.59;;;12.01;87.27
76022;BME280;64718;52.124;6.226;2023-05-13T00:50:09;102053.41;;;11.93;87.47
76022;BME280;64718;52.124;6.226;2023-05-13T00:52:37;102058.84;;;11.86;88.43
76022;BME280;64718;52.124;6.226;2023-05-13T00:55:04;102062.47;;;11.80;88.80
76022;BME280;64718;52.124;6.226;2023-05-13T00:57:31;102066.13;;;11.73;89.19
76022;BME280;64718;52.124;6.226;2023-05-13T00:59:58;102068.97;;;11.64;89.92
76022;BME280;64718;52.124;6.226;2023-05-13T01:02:31;102065.69;;;11.56;90.58
76022;BME280;64718;52.124;6.226;2023-05-13T01:05:07;102064.28;;;11.44;91.92
76022;BME280;64718;52.124;6.226;2023-05-13T01:07:43;102067.97;;;11.35;92.78
76022;BME280;64718;52.124;6.226;2023-05-13T01:10:18;102066.75;;;11.16;94.25
76022;BME280;64718;52.124;6.226;2023-05-13T01:12:53;102068.19;;;10.92;96.27
76022;BME280;64718;52.124;6.226;2023-05-13T01:15:24;102065.91;;;10.78;97.89
76022;BME280;64718;52.124;6.226;2023-05-13T01:17:54;102071.22;;;10.74;98.44
76022;BME280;64718;52.124;6.226;2023-05-13T01:20:22;102065.22;;;10.70;99.62
76022;BME280;64718;52.124;6.226;2023-05-13T01:22:50;102070.44;;;10.70;99.38
76022;BME280;64718;52.124;6.226;2023-05-13T01:25:16;102063.56;;;10.68;99.41
76022;BME280;64718;52.124;6.226;2023-05-13T01:27:43;102061.63;;;10.76;99.24
76022;BME280;64718;52.124;6.226;2023-05-13T01:30:11;102060.78;;;10.75;99.47
76022;BME280;64718;52.124;6.226;2023-05-13T01:32:37;102068.53;;;10.77;99.08
76022;BME280;64718;52.124;6.226;2023-05-13T01:35:05;102063.50;;;10.71;99.80
76022;BME280;64718;52.124;6.226;2023-05-13T01:37:32;102064.56;;;10.62;100.00
76022;BME280;64718;52.124;6.226;2023-05-13T01:40:01;102061.06;;;10.63;100.00
76022;BME280;64718;52.124;6.226;2023-05-13T01:42:28;102077.53;;;10.64;100.00
76022;BME280;64718;52.124;6.226;2023-05-13T01:44:55;102071.56;;;10.59;100.00
76022;BME280;64718;52.124;6.226;2023-05-13T01:47:21;102074.16;;;10.60;100.00
76022;BME280;64718;52.124;6.226;2023-05-13T01:49:48;102072.28;;;10.65;100.00
76022;BME280;64718;52.124;6.226;2023-05-13T01:52:14;102070.63;;;10.63;100.00
76022;BME280;64718;52.124;6.226;2023-05-13T01:54:41;102073.38;;;10.57;100.00
76022;BME280;64718;52.124;6.226;2023-05-13T01:57:08;102063.25;;;10.44;100.00
76022;BME280;64718;52.124;6.226;2023-05-13T01:59:35;102064.53;;;10.24;100.00
76022;BME280;64718;52.124;6.226;2023-05-13T02:02:02;102070.13;;;10.04;100.00
76022;BME280;64718;52.124;6.226;2023-05-13T02:04:29;102082.38;;;9.97;100.00
76022;BME280;64718;52.124;6.226;2023-05-13T02:06:56;102070.34;;;9.93;100.00
76022;BME280;64718;52.124;6.226;2023-05-13T02:09:22;102077.44;;;9.85;100.00
76022;BME280;64718;52.124;6.226;2023-05-13T02:11:49;102079.13;;;9.88;100.00
76022;BME280;64718;52.124;6.226;2023-05-13T02:14:17;102075.47;;;9.96;100.00
76022;BME280;64718;52.124;6.226;2023-05-13T02:16:44;102073.66;;;10.01;100.00
76022;BME280;64718;52.124;6.226;2023-05-13T02:19:11;102074.50;;;10.02;100.00
76022;BME280;64718;52.124;6.226;2023-05-13T02:21:37;102076.34;;;9.97;100.00
76022;BME280;64718;52.124;6.226;2023-05-13T02:24:04;102081.69;;;9.89;100.00
76022;BME280;64718;52.124;6.226;2023-05-13T02:26:31;102084.38;;;9.85;100.00
76022;BME280;64718;52.124;6.226;2023-05-13T02:28:58;102085.34;;;9.77;100.00
76022;BME280;64718;52.124;6.226;2023-05-13T02:31:25;102079.31;;;9.77;100.00
76022;BME280;64718;52.124;6.226;2023-05-13T02:33:52;102079.53;;;9.65;100.00
76022;BME280;64718;52.124;6.226;2023-05-13T02:36:18;102081.16;;;9.70;100.00
76022;BME280;64718;52.124;6.226;2023-05-13T02:38:45;102086.28;;;9.75;100.00
76022;BME280;64718;52.124;6.226;2023-05-13T02:41:11;102087.88;;;9.83;100.00
76022;BME280;64718;52.124;6.226;2023-05-13T02:43:38;102074.72;;;9.91;100.00
76022;BME280;64718;52.124;6.226;2023-05-13T02:46:04;102076.28;;;10.00;100.00
76022;BME280;64718;52.124;6.226;2023-05-13T02:48:32;102075.38;;;10.01;100.00
76022;BME280;64718;52.124;6.226;2023-05-13T02:50:59;102071.00;;;10.03;100.00
76022;BME280;64718;52.124;6.226;2023-05-13T02:53:25;102072.78;;;10.01;100.00
76022;BME280;64718;52.124;6.226;2023-05-13T02:55:52;102075.44;;;9.98;100.00
76022;BME280;64718;52.124;6.226;2023-05-13T02:58:18;102065.19;;;9.92;100.00
76022;BME280;64718;52.124;6.226;2023-05-13T03:00:45;102068.69;;;9.89;100.00
76022;BME280;64718;52.124;6.226;2023-05-13T03:03:11;102070.53;;;9.82;100.00
76022;BME280;64718;52.124;6.226;2023-05-13T03:05:39;102061.94;;;9.79;100.00
76022;BME280;64718;52.124;6.226;2023-05-13T03:08:06;102061.09;;;9.78;100.00
76022;BME280;64718;52.124;6.226;2023-05-13T03:10:33;102068.94;;;9.75;100.00
76022;BME280;64718;52.124;6.226;2023-05-13T03:12:59;102068.09;;;9.75;100.00
76022;BME280;64718;52.124;6.226;2023-05-13T03:15:26;102069.84;;;9.73;100.00
76022;BME280;64718;52.124;6.226;2023-05-13T03:17:52;102070.81;;;9.69;100.00
76022;BME280;64718;52.124;6.226;2023-05-13T03:20:19;102066.56;;;9.65;100.00
76022;BME280;64718;52.124;6.226;2023-05-13T03:22:47;102066.63;;;9.60;100.00
76022;BME280;64718;52.124;6.226;2023-05-13T03:25:13;102066.66;;;9.59;100.00
76022;BME280;64718;52.124;6.226;2023-05-13T03:27:40;102058.91;;;9.57;100.00
76022;BME280;64718;52.124;6.226;2023-05-13T03:30:07;102058.94;;;9.56;100.00
76022;BME280;64718;52.124;6.226;2023-05-13T03:32:34;102061.44;;;9.60;100.00
76022;BME280;64718;52.124;6.226;2023-05-13T03:35:00;102064.88;;;9.62;100.00
76022;BME280;64718;52.124;6.226;2023-05-13T03:37:28;102060.63;;;9.58;100.00
76022;BME280;64718;52.124;6.226;2023-05-13T03:39:56;102065.81;;;9.58;100.00
76022;BME280;64718;52.124;6.226;2023-05-13T03:42:22;102067.59;;;9.56;100.00
76022;BME280;64718;52.124;6.226;2023-05-13T03:44:50;102067.63;;;9.53;100.00
76022;BME280;64718;52.124;6.226;2023-05-13T03:47:16;102069.41;;;9.51;100.00
76022;BME280;64718;52.124;6.226;2023-05-13T03:49:43;102066.00;;;9.47;100.00
76022;BME280;64718;52.124;6.226;2023-05-13T03:52:12;102072.09;;;9.46;100.00
76022;BME280;64718;52.124;6.226;2023-05-13T03:54:38;102065.16;;;9.47;100.00
76022;BME280;64718;52.124;6.226;2023-05-13T03:57:07;102080.06;;;9.37;100.00
76022;BME280;64718;52.124;6.226;2023-05-13T03:59:34;102086.09;;;9.38;100.00
76022;BME280;64718;52.124;6.226;2023-05-13T04:02:00;102081.69;;;9.43;100.00
76022;BME280;64718;52.124;6.226;2023-05-13T04:04:27;102084.41;;;9.35;100.00
76022;BME280;64718;52.124;6.226;2023-05-13T04:06:53;102081.75;;;9.38;100.00
76022;BME280;64718;52.124;6.226;2023-05-13T04:09:20;102082.63;;;9.39;100.00
76022;BME280;64718;52.124;6.226;2023-05-13T04:11:46;102080.06;;;9.37;100.00
76022;BME280;64718;52.124;6.226;2023-05-13T04:14:14;102080.94;;;9.36;100.00
76022;BME280;64718;52.124;6.226;2023-05-13T04:16:41;102081.78;;;9.37;100.00
76022;BME280;64718;52.124;6.226;2023-05-13T04:19:07;102081.81;;;9.35;100.00
76022;BME280;64718;52.124;6.226;2023-05-13T04:21:34;102082.69;;;9.36;100.00
76022;BME280;64718;52.124;6.226;2023-05-13T04:24:00;102079.25;;;9.34;100.00
76022;BME280;64718;52.124;6.226;2023-05-13T04:26:27;102087.00;;;9.35;100.00
76022;BME280;64718;52.124;6.226;2023-05-13T04:28:53;102090.50;;;9.33;100.00
76022;BME280;64718;52.124;6.226;2023-05-13T04:31:21;102085.25;;;9.37;100.00
76022;BME280;64718;52.124;6.226;2023-05-13T04:33:48;102086.88;;;9.43;100.00
76022;BME280;64718;52.124;6.226;2023-05-13T04:36:14;102085.00;;;9.51;100.00
76022;BME280;64718;52.124;6.226;2023-05-13T04:38:41;102093.53;;;9.58;100.00
76022;BME280;64718;52.124;6.226;2023-05-13T04:41:07;102097.78;;;9.62;100.00
76022;BME280;64718;52.124;6.226;2023-05-13T04:43:33;102099.44;;;9.66;100.00
76022;BME280;64718;52.124;6.226;2023-05-13T04:46:00;102101.09;;;9.70;100.00
76022;BME280;64718;52.124;6.226;2023-05-13T04:48:28;102105.31;;;9.75;100.00
76022;BME280;64718;52.124;6.226;2023-05-13T04:50:54;102106.03;;;9.85;100.00
76022;BME280;64718;52.124;6.226;2023-05-13T04:53:22;102102.31;;;9.97;100.00
76022;BME280;64718;52.124;6.226;2023-05-13T04:55:49;102103.63;;;10.18;100.00
76022;BME280;64718;52.124;6.226;2023-05-13T04:58:16;102101.94;;;10.95;100.00
76022;BME280;64718;52.124;6.226;2023-05-13T05:00:43;102098.19;;;11.75;100.00
76022;BME280;64718;52.124;6.226;2023-05-13T05:03:09;102099.50;;;11.59;100.00
76022;BME280;64718;52.124;6.226;2023-05-13T05:05:37;102093.53;;;11.21;100.00
76022;BME280;64718;52.124;6.226;2023-05-13T05:08:04;102096.78;;;11.63;100.00
76022;BME280;64718;52.124;6.226;2023-05-13T05:10:30;102095.25;;;11.56;100.00
76022;BME280;64718;52.124;6.226;2023-05-13T05:12:57;102105.69;;;11.21;100.00
76022;BME280;64718;52.124;6.226;2023-05-13T05:15:23;102114.88;;;11.00;100.00
76022;BME280;64718;52.124;6.226;2023-05-13T05:17:50;102102.06;;;10.91;100.00
76022;BME280;64718;52.124;6.226;2023-05-13T05:20:16;102108.00;;;10.96;100.00
76022;BME280;64718;52.124;6.226;2023-05-13T05:22:44;102118.38;;;10.99;100.00
76022;BME280;64718;52.124;6.226;2023-05-13T05:25:10;102116.72;;;11.30;100.00
76022;BME280;64718;52.124;6.226;2023-05-13T05:27:37;102114.16;;;12.85;97.70
76022;BME280;64718;52.124;6.226;2023-05-13T05:30:05;102119.25;;;12.60;94.19
76022;BME280;64718;52.124;6.226;2023-05-13T05:32:32;102114.91;;;12.00;98.62
76022;BME280;64718;52.124;6.226;2023-05-13T05:34:59;102119.66;;;12.17;99.91
76022;BME280;64718;52.124;6.226;2023-05-13T05:37:26;102123.50;;;12.92;93.06
76022;BME280;64718;52.124;6.226;2023-05-13T05:39:54;102123.09;;;12.19;96.33
76022;BME280;64718;52.124;6.226;2023-05-13T05:42:20;102118.16;;;12.09;99.03
76022;BME280;64718;52.124;6.226;2023-05-13T05:44:47;102118.78;;;13.56;92.01
76022;BME280;64718;52.124;6.226;2023-05-13T05:47:13;102121.50;;;14.51;84.93
76022;BME280;64718;52.124;6.226;2023-05-13T05:49:40;102123.25;;;14.95;81.29
76022;BME280;64718;52.124;6.226;2023-05-13T05:52:06;102119.78;;;14.72;80.62
76022;BME280;64718;52.124;6.226;2023-05-13T05:54:35;102122.91;;;14.60;82.99
76022;BME280;64718;52.124;6.226;2023-05-13T05:57:03;102128.78;;;13.70;86.84
76022;BME280;64718;52.124;6.226;2023-05-13T05:59:29;102126.53;;;13.84;86.33
76022;BME280;64718;52.124;6.226;2023-05-13T06:01:56;102122.28;;;13.03;90.75
76022;BME280;64718;52.124;6.226;2023-05-13T06:04:22;102129.34;;;12.73;94.23
76022;BME280;64718;52.124;6.226;2023-05-13T06:06:49;102128.59;;;12.67;95.23
76022;BME280;64718;52.124;6.226;2023-05-13T06:09:15;102123.66;;;14.39;87.33
76022;BME280;64718;52.124;6.226;2023-05-13T06:11:42;102124.84;;;14.99;81.67
76022;BME280;64718;52.124;6.226;2023-05-13T06:14:09;102140.78;;;13.76;87.55
76022;BME280;64718;52.124;6.226;2023-05-13T06:16:36;102129.81;;;12.85;92.46
76022;BME280;64718;52.124;6.226;2023-05-13T06:19:02;102131.63;;;12.54;95.43
76022;BME280;64718;52.124;6.226;2023-05-13T06:21:29;102133.53;;;13.05;94.85
76022;BME280;64718;52.124;6.226;2023-05-13T06:23:56;102131.03;;;14.52;85.54
76022;BME280;64718;52.124;6.226;2023-05-13T06:26:23;102129.63;;;15.73;78.98
76022;BME280;64718;52.124;6.226;2023-05-13T06:28:50;102130.97;;;16.41;75.33
76022;BME280;64718;52.124;6.226;2023-05-13T06:31:18;102124.97;;;15.80;75.64
76022;BME280;64718;52.124;6.226;2023-05-13T06:33:44;102132.97;;;16.16;74.41
76022;BME280;64718;52.124;6.226;2023-05-13T06:36:11;102121.22;;;16.25;74.40
76022;BME280;64718;52.124;6.226;2023-05-13T06:38:37;102128.47;;;16.95;72.67
76022;BME280;64718;52.124;6.226;2023-05-13T06:41:04;102126.22;;;17.04;70.33
76022;BME280;64718;52.124;6.226;2023-05-13T06:43:30;102128.91;;;17.39;70.67
76022;BME280;64718;52.124;6.226;2023-05-13T06:45:57;102129.44;;;17.46;70.27
76022;BME280;64718;52.124;6.226;2023-05-13T06:48:25;102129.53;;;17.79;67.55
76022;BME280;64718;52.124;6.226;2023-05-13T06:50:52;102130.88;;;18.03;67.44
76022;BME280;64718;52.124;6.226;2023-05-13T06:53:18;102128.78;;;18.25;66.75
76022;BME280;64718;52.124;6.226;2023-05-13T06:55:45;102135.16;;;18.21;66.13
76022;BME280;64718;52.124;6.226;2023-05-13T06:58:11;102139.22;;;18.60;64.68
76022;BME280;64718;52.124;6.226;2023-05-13T07:00:39;102133.66;;;18.33;63.88
76022;BME280;64718;52.124;6.226;2023-05-13T07:03:06;102131.22;;;17.62;65.89
76022;BME280;64718;52.124;6.226;2023-05-13T07:05:34;102137.88;;;17.87;66.37
76022;BME280;64718;52.124;6.226;2023-05-13T07:08:03;102133.19;;;18.09;67.02
76022;BME280;64718;52.124;6.226;2023-05-13T07:10:31;102136.03;;;18.38;64.04
76022;BME280;64718;52.124;6.226;2023-05-13T07:12:58;102136.75;;;18.88;63.29
76022;BME280;64718;52.124;6.226;2023-05-13T07:15:24;102134.44;;;19.14;63.21
76022;BME280;64718;52.124;6.226;2023-05-13T07:17:51;102136.38;;;19.56;62.92
76022;BME280;64718;52.124;6.226;2023-05-13T07:20:17;102135.22;;;18.84;61.45
76022;BME280;64718;52.124;6.226;2023-05-13T07:22:47;102133.44;;;18.85;63.04
76022;BME280;64718;52.124;6.226;2023-05-13T07:25:14;102135.00;;;19.49;61.15
76022;BME280;64718;52.124;6.226;2023-05-13T07:27:41;102131.41;;;19.36;63.33
76022;BME280;64718;52.124;6.226;2023-05-13T07:30:08;102130.59;;;19.79;59.72
76022;BME280;64718;52.124;6.226;2023-05-13T07:32:35;102140.09;;;19.52;60.89
76022;BME280;64718;52.124;6.226;2023-05-13T07:35:02;102140.47;;;19.16;61.32
76022;BME280;64718;52.124;6.226;2023-05-13T07:37:29;102136.22;;;19.13;60.51
76022;BME280;64718;52.124;6.226;2023-05-13T07:39:57;102131.91;;;19.86;60.75
76022;BME280;64718;52.124;6.226;2023-05-13T07:42:23;102133.97;;;20.38;57.81
76022;BME280;64718;52.124;6.226;2023-05-13T07:44:51;102127.53;;;20.98;57.26
76022;BME280;64718;52.124;6.226;2023-05-13T07:47:18;102124.66;;;20.74;56.85
76022;BME280;64718;52.124;6.226;2023-05-13T07:49:44;102139.38;;;20.51;56.83
76022;BME280;64718;52.124;6.226;2023-05-13T07:52:11;102135.97;;;20.06;58.19
76022;BME280;64718;52.124;6.226;2023-05-13T07:54:37;102132.78;;;20.44;58.88
76022;BME280;64718;52.124;6.226;2023-05-13T07:57:05;102135.69;;;20.25;58.75
76022;BME280;64718;52.124;6.226;2023-05-13T07:59:32;102130.22;;;20.83;58.34
76022;BME280;64718;52.124;6.226;2023-05-13T08:01:58;102128.91;;;21.03;57.34
76022;BME280;64718;52.124;6.226;2023-05-13T08:04:25;102134.16;;;21.17;58.79
76022;BME280;64718;52.124;6.226;2023-05-13T08:06:51;102130.41;;;21.34;57.64
76022;BME280;64718;52.124;6.226;2023-05-13T08:09:18;102129.50;;;21.61;54.61
76022;BME280;64718;52.124;6.226;2023-05-13T08:11:44;102131.44;;;22.09;53.47
76022;BME280;64718;52.124;6.226;2023-05-13T08:14:12;102136.91;;;21.68;54.38
76022;BME280;64718;52.124;6.226;2023-05-13T08:16:39;102129.56;;;21.07;57.48
76022;BME280;64718;52.124;6.226;2023-05-13T08:19:05;102129.84;;;21.29;57.42
76022;BME280;64718;52.124;6.226;2023-05-13T08:21:32;102129.00;;;21.29;55.92
76022;BME280;64718;52.124;6.226;2023-05-13T08:23:58;102135.59;;;21.36;56.01
76022;BME280;64718;52.124;6.226;2023-05-13T08:26:25;102127.38;;;20.87;57.08
76022;BME280;64718;52.124;6.226;2023-05-13T08:28:53;102132.03;;;20.69;59.84
76022;BME280;64718;52.124;6.226;2023-05-13T08:31:22;102137.09;;;19.88;62.38
76022;BME280;64718;52.124;6.226;2023-05-13T08:33:49;102130.78;;;20.05;61.07
76022;BME280;64718;52.124;6.226;2023-05-13T08:36:17;102129.94;;;20.47;58.63
76022;BME280;64718;52.124;6.226;2023-05-13T08:38:44;102130.22;;;20.28;60.74
76022;BME280;64718;52.124;6.226;2023-05-13T08:41:11;102124.25;;;20.94;58.56
76022;BME280;64718;52.124;6.226;2023-05-13T08:43:38;102127.75;;;21.07;57.19
76022;BME280;64718;52.124;6.226;2023-05-13T08:46:08;102124.50;;;21.94;55.95
76022;BME280;64718;52.124;6.226;2023-05-13T08:48:37;102130.25;;;22.01;56.42
76022;BME280;64718;52.124;6.226;2023-05-13T08:51:04;102118.38;;;22.19;55.64
76022;BME280;64718;52.124;6.226;2023-05-13T08:53:31;102123.78;;;22.18;53.99
76022;BME280;64718;52.124;6.226;2023-05-13T08:55:59;102124.97;;;22.50;51.31
76022;BME280;64718;52.124;6.226;2023-05-13T08:58:26;102122.81;;;22.68;50.28
76022;BME280;64718;52.124;6.226;2023-05-13T09:00:53;102127.22;;;22.44;51.84
76022;BME280;64718;52.124;6.226;2023-05-13T09:03:20;102120.06;;;22.20;53.87
76022;BME280;64718;52.124;6.226;2023-05-13T09:05:48;102114.16;;;22.17;55.87
76022;BME280;64718;52.124;6.226;2023-05-13T09:08:14;102119.03;;;21.97;54.90
76022;BME280;64718;52.124;6.226;2023-05-13T09:10:41;102115.03;;;22.04;55.60
76022;BME280;64718;52.124;6.226;2023-05-13T09:13:07;102110.44;;;22.80;54.06
76022;BME280;64718;52.124;6.226;2023-05-13T09:15:40;102117.00;;;23.11;53.61
76022;BME280;64718;52.124;6.226;2023-05-13T09:18:07;102115.38;;;23.21;49.40
76022;BME280;64718;52.124;6.226;2023-05-13T09:20:34;102110.84;;;23.10;51.72
76022;BME280;64718;52.124;6.226;2023-05-13T09:23:04;102113.69;;;23.20;51.92
76022;BME280;64718;52.124;6.226;2023-05-13T09:25:30;102118.53;;;23.26;53.02
76022;BME280;64718;52.124;6.226;2023-05-13T09:27:59;102108.38;;;22.72;53.49
76022;BME280;64718;52.124;6.226;2023-05-13T09:30:26;102116.09;;;22.38;52.44
76022;BME280;64718;52.124;6.226;2023-05-13T09:33:07;102112.28;;;22.42;51.36
76022;BME280;64718;52.124;6.226;2023-05-13T09:35:35;102118.91;;;22.61;49.85
76022;BME280;64718;52.124;6.226;2023-05-13T09:38:12;102115.31;;;22.62;51.90
76022;BME280;64718;52.124;6.226;2023-05-13T09:40:39;102108.44;;;22.83;52.27
76022;BME280;64718;52.124;6.226;2023-05-13T09:43:06;102110.19;;;22.95;52.68
76022;BME280;64718;52.124;6.226;2023-05-13T09:45:33;102102.84;;;22.75;53.57
76022;BME280;64718;52.124;6.226;2023-05-13T09:48:01;102102.66;;;22.65;52.34
76022;BME280;64718;52.124;6.226;2023-05-13T09:50:30;102100.97;;;22.28;53.53
76022;BME280;64718;52.124;6.226;2023-05-13T09:52:56;102101.41;;;21.96;55.52
76022;BME280;64718;52.124;6.226;2023-05-13T09:55:24;102100.13;;;22.27;55.21
76022;BME280;64718;52.124;6.226;2023-05-13T09:57:52;102102.16;;;22.24;53.07
76022;BME280;64718;52.124;6.226;2023-05-13T10:00:18;102091.69;;;22.46;52.61
76022;BME280;64718;52.124;6.226;2023-05-13T10:02:45;102094.44;;;22.45;53.71
76022;BME280;64718;52.124;6.226;2023-05-13T10:05:12;102099.56;;;22.35;54.07
76022;BME280;64718;52.124;6.226;2023-05-13T10:07:39;102092.06;;;22.29;51.84
76022;BME280;64718;52.124;6.226;2023-05-13T10:10:07;102090.84;;;22.09;52.93
76022;BME280;64718;52.124;6.226;2023-05-13T10:12:36;102092.28;;;21.88;51.66
76022;BME280;64718;52.124;6.226;2023-05-13T10:15:05;102091.34;;;22.01;53.00
76022;BME280;64718;52.124;6.226;2023-05-13T10:17:33;102085.09;;;22.15;49.80
76022;BME280;64718;52.124;6.226;2023-05-13T10:20:05;102075.75;;;22.22;45.95
76022;BME280;64718;52.124;6.226;2023-05-13T10:22:32;102084.91;;;22.42;45.54
76022;BME280;64718;52.124;6.226;2023-05-13T10:25:01;102070.69;;;22.43;47.43
76022;BME280;64718;52.124;6.226;2023-05-13T10:27:30;102074.06;;;22.58;46.51
76022;BME280;64718;52.124;6.226;2023-05-13T10:30:00;102069.88;;;22.66;45.04
76022;BME280;64718;52.124;6.226;2023-05-13T10:32:29;102069.16;;;22.64;46.74
76022;BME280;64718;52.124;6.226;2023-05-13T10:34:59;102061.81;;;22.68;45.46
76022;BME280;64718;52.124;6.226;2023-05-13T10:37:59;102059.38;;;22.65;45.80
76022;BME280;64718;52.124;6.226;2023-05-13T10:40:58;102065.78;;;22.50;46.39
76022;BME280;64718;52.124;6.226;2023-05-13T10:43:27;102066.88;;;22.71;45.08
76022;BME280;64718;52.124;6.226;2023-05-13T10:45:58;102067.09;;;22.68;42.61
76022;BME280;64718;52.124;6.226;2023-05-13T10:48:25;102068.97;;;22.79;43.22
76022;BME280;64718;52.124;6.226;2023-05-13T10:50:54;102057.38;;;23.03;42.49
76022;BME280;64718;52.124;6.226;2023-05-13T10:53:26;102058.78;;;23.20;42.42
76022;BME280;64718;52.124;6.226;2023-05-13T10:55:55;102054.44;;;23.19;43.03
76022;BME280;64718;52.124;6.226;2023-05-13T10:58:27;102060.16;;;23.02;41.55
76022;BME280;64718;52.124;6.226;2023-05-13T11:01:12;102059.06;;;23.04;41.06
76022;BME280;64718;52.124;6.226;2023-05-13T11:03:39;102057.38;;;23.03;39.38
76022;BME280;64718;52.124;6.226;2023-05-13T11:06:16;102053.97;;;23.37;39.92
76022;BME280;64718;52.124;6.226;2023-05-13T11:08:44;102055.91;;;23.46;40.10
76022;BME280;64718;52.124;6.226;2023-05-13T11:11:35;102058.13;;;23.63;39.01
76022;BME280;64718;52.124;6.226;2023-05-13T11:14:06;102055.91;;;23.46;38.49
76022;BME280;64718;52.124;6.226;2023-05-13T11:16:34;102046.97;;;23.47;37.95
76022;BME280;64718;52.124;6.226;2023-05-13T11:19:02;102046.00;;;23.37;38.87
76022;BME280;64718;52.124;6.226;2023-05-13T11:21:30;102047.09;;;23.45;38.45
76022;BME280;64718;52.124;6.226;2023-05-13T11:23:58;102048.94;;;23.56;37.93
76022;BME280;64718;52.124;6.226;2023-05-13T11:26:42;102048.84;;;23.69;38.35
76022;BME280;64718;52.124;6.226;2023-05-13T11:29:09;102039.66;;;23.61;33.52
76022;BME280;64718;52.124;6.226;2023-05-13T11:31:48;102042.75;;;23.33;34.90
76022;BME280;64718;52.124;6.226;2023-05-13T11:34:17;102050.50;;;22.77;38.49
76022;BME280;64718;52.124;6.226;2023-05-13T11:36:45;102049.44;;;22.80;38.11
76022;BME280;64718;52.124;6.226;2023-05-13T11:39:14;102039.00;;;23.24;35.20
76022;BME280;64718;52.124;6.226;2023-05-13T11:41:43;102030.72;;;23.62;34.58
76022;BME280;64718;52.124;6.226;2023-05-13T11:44:11;102038.69;;;23.05;37.71
76022;BME280;64718;52.124;6.226;2023-05-13T11:46:52;102045.41;;;22.98;35.94
76022;BME280;64718;52.124;6.226;2023-05-13T11:49:33;102036.69;;;23.20;33.10
76022;BME280;64718;52.124;6.226;2023-05-13T11:52:00;102032.03;;;23.57;35.23
76022;BME280;64718;52.124;6.226;2023-05-13T11:54:26;102027.84;;;23.88;34.77
76022;BME280;64718;52.124;6.226;2023-05-13T11:56:53;102022.88;;;23.94;33.50
76022;BME280;64718;52.124;6.226;2023-05-13T11:59:19;102029.34;;;24.13;35.80
76022;BME280;64718;52.124;6.226;2023-05-13T12:01:58;102015.06;;;24.25;34.85
76022;BME280;64718;52.124;6.226;2023-05-13T12:04:27;102021.97;;;24.39;34.17
76022;BME280;64718;52.124;6.226;2023-05-13T12:06:54;102021.41;;;24.56;33.48
76022;BME280;64718;52.124;6.226;2023-05-13T12:09:21;102016.72;;;24.48;32.36
76022;BME280;64718;52.124;6.226;2023-05-13T12:11:47;102022.69;;;24.18;31.90
76022;BME280;64718;52.124;6.226;2023-05-13T12:14:14;102022.66;;;24.52;34.50
76022;BME280;64718;52.124;6.226;2023-05-13T12:16:42;102019.59;;;24.56;30.42
76022;BME280;64718;52.124;6.226;2023-05-13T12:19:11;102016.38;;;24.74;34.58
76022;BME280;64718;52.124;6.226;2023-05-13T12:21:37;102016.63;;;24.71;33.83
76022;BME280;64718;52.124;6.226;2023-05-13T12:24:15;102011.56;;;24.68;33.01
76022;BME280;64718;52.124;6.226;2023-05-13T12:26:42;102011.91;;;24.42;35.51
76022;BME280;64718;52.124;6.226;2023-05-13T12:29:09;102018.38;;;24.60;34.31
76022;BME280;64718;52.124;6.226;2023-05-13T12:31:35;102015.38;;;24.86;34.90
76022;BME280;64718;52.124;6.226;2023-05-13T12:34:02;102011.69;;;25.19;35.33
76022;BME280;64718;52.124;6.226;2023-05-13T12:36:36;102015.06;;;25.21;32.77
76022;BME280;64718;52.124;6.226;2023-05-13T12:39:03;102013.03;;;25.34;33.05
76022;BME280;64718;52.124;6.226;2023-05-13T12:41:31;102014.38;;;24.98;35.53
76022;BME280;64718;52.124;6.226;2023-05-13T12:44:00;102023.59;;;23.96;34.43
76022;BME280;64718;52.124;6.226;2023-05-13T12:46:27;102014.88;;;23.39;34.89
76022;BME280;64718;52.124;6.226;2023-05-13T12:48:55;102014.13;;;23.37;34.90
76022;BME280;64718;52.124;6.226;2023-05-13T12:51:22;102012.31;;;24.15;34.13
76022;BME280;64718;52.124;6.226;2023-05-13T12:53:50;102008.66;;;24.71;33.44